createdAt,value
2017-09-29T00:00:49.868Z,88.05
2017-09-29T00:03:16.104Z,86.68
2017-09-29T00:05:42.391Z,86.36
2017-09-29T00:08:08.638Z,87.06
2017-09-29T00:10:34.871Z,87.40
2017-09-29T00:13:01.122Z,88.29
2017-09-29T00:15:27.365Z,88.21
2017-09-29T00:17:53.602Z,85.68
2017-09-29T00:20:19.884Z,85.48
2017-09-29T00:22:46.127Z,86.14
2017-09-29T00:25:12.375Z,86.55
2017-09-29T00:27:38.622Z,84.66
2017-09-29T00:30:04.885Z,84.96
2017-09-29T00:32:31.120Z,84.71
2017-09-29T00:34:57.372Z,84.20
2017-09-29T00:37:23.618Z,84.82
2017-09-29T00:39:49.855Z,84.10
2017-09-29T00:42:16.098Z,84.96
2017-09-29T00:44:42.320Z,85.52
2017-09-29T00:47:08.556Z,85.54
2017-09-29T00:49:34.801Z,85.52
2017-09-29T00:52:01.047Z,85.17
2017-09-29T00:54:27.323Z,85.64
2017-09-29T00:56:53.572Z,84.82
2017-09-29T00:59:19.785Z,83.62
2017-09-29T01:01:46.042Z,85.57
2017-09-29T01:04:12.270Z,84.66
2017-09-29T01:06:38.503Z,84.85
2017-09-29T01:09:04.785Z,85.76
2017-09-29T01:11:30.995Z,85.66
2017-09-29T01:13:57.199Z,85.80
2017-09-29T01:16:23.477Z,85.04
2017-09-29T01:18:49.714Z,85.29
2017-09-29T01:21:15.936Z,85.80
2017-09-29T01:23:42.202Z,85.94
2017-09-29T01:26:08.440Z,85.69
2017-09-29T01:28:34.669Z,86.70
2017-09-29T01:31:00.975Z,87.79
2017-09-29T01:33:27.220Z,88.32
2017-09-29T01:35:53.457Z,87.62
2017-09-29T01:38:19.739Z,87.51
2017-09-29T01:40:45.985Z,86.58
2017-09-29T01:43:12.213Z,86.19
2017-09-29T01:45:38.478Z,87.30
2017-09-29T01:48:04.715Z,87.46
2017-09-29T01:50:30.955Z,87.62
2017-09-29T01:52:57.227Z,87.28
2017-09-29T01:55:23.452Z,87.97
2017-09-29T01:57:49.676Z,88.25
2017-09-29T02:00:15.936Z,88.59
2017-09-29T02:02:42.204Z,89.38
2017-09-29T02:05:08.426Z,89.81
2017-09-29T02:07:34.689Z,89.47
2017-09-29T02:10:00.924Z,89.42
2017-09-29T02:12:27.159Z,89.82
2017-09-29T02:14:53.451Z,89.61
2017-09-29T02:17:19.751Z,89.67
2017-09-29T02:19:45.979Z,90.15
2017-09-29T02:22:12.252Z,90.92
2017-09-29T02:24:38.490Z,91.42
2017-09-29T02:27:04.706Z,91.45
2017-09-29T02:29:30.980Z,91.73
2017-09-29T02:31:57.214Z,91.02
2017-09-29T02:34:23.466Z,91.12
2017-09-29T02:36:49.731Z,91.27
2017-09-29T02:39:15.969Z,91.43
2017-09-29T02:41:42.202Z,91.82
2017-09-29T02:44:08.667Z,91.39
2017-09-29T02:46:34.894Z,91.97
2017-09-29T02:49:01.140Z,91.35
2017-09-29T02:51:27.423Z,90.73
2017-09-29T02:53:53.640Z,90.70
2017-09-29T02:56:19.859Z,90.38
2017-09-29T02:58:46.113Z,90.77
2017-09-29T03:01:12.341Z,89.99
2017-09-29T03:03:38.609Z,90.46
2017-09-29T03:06:04.889Z,91.28
2017-09-29T03:08:31.111Z,91.35
2017-09-29T03:10:57.344Z,90.97
2017-09-29T03:13:23.614Z,91.12
2017-09-29T03:15:49.853Z,91.06
2017-09-29T03:18:16.082Z,90.64
2017-09-29T03:20:42.362Z,90.66
2017-09-29T03:23:08.611Z,90.41
2017-09-29T03:25:34.848Z,89.83
2017-09-29T03:28:01.150Z,90.01
2017-09-29T03:30:27.381Z,91.18
2017-09-29T03:32:53.618Z,91.25
2017-09-29T03:35:19.896Z,91.18
2017-09-29T03:37:46.124Z,90.63
2017-09-29T03:40:12.356Z,90.93
2017-09-29T03:42:38.632Z,90.88
2017-09-29T03:45:04.879Z,90.58
2017-09-29T03:47:31.102Z,90.63
2017-09-29T03:49:57.371Z,91.48
2017-09-29T03:52:23.615Z,91.41
2017-09-29T03:54:49.848Z,90.94
2017-09-29T03:57:16.117Z,91.03
2017-09-29T03:59:42.340Z,90.99
2017-09-29T04:02:08.558Z,91.13
2017-09-29T04:04:34.839Z,91.41
2017-09-29T04:07:01.081Z,91.86
2017-09-29T04:09:27.304Z,92.22
2017-09-29T04:11:53.596Z,92.49
2017-09-29T04:14:19.819Z,91.69
2017-09-29T04:16:46.052Z,91.86
2017-09-29T04:19:12.312Z,92.13
2017-09-29T04:21:38.547Z,91.78
2017-09-29T04:24:04.789Z,91.83
2017-09-29T04:26:31.077Z,91.62
2017-09-29T04:28:57.322Z,91.38
2017-09-29T04:31:23.553Z,92.47
2017-09-29T04:33:49.815Z,91.53
2017-09-29T04:36:16.041Z,90.41
2017-09-29T04:38:42.273Z,90.20
2017-09-29T04:41:08.532Z,90.07
2017-09-29T04:43:34.759Z,90.14
2017-09-29T04:46:00.992Z,89.96
2017-09-29T04:48:27.277Z,89.15
2017-09-29T04:50:53.512Z,88.53
2017-09-29T04:53:19.760Z,87.48
2017-09-29T04:55:46.052Z,87.83
2017-09-29T04:58:12.262Z,87.70
2017-09-29T05:00:38.492Z,87.08
2017-09-29T05:03:04.760Z,87.13
2017-09-29T05:05:31.003Z,86.23
2017-09-29T05:07:57.266Z,86.61
2017-09-29T05:10:23.560Z,85.84
2017-09-29T05:12:49.836Z,85.43
2017-09-29T05:15:16.069Z,84.88
2017-09-29T05:17:42.313Z,85.59
2017-09-29T05:20:08.542Z,84.87
2017-09-29T05:22:34.764Z,84.37
2017-09-29T05:25:01.045Z,84.36
2017-09-29T05:27:27.291Z,83.81
2017-09-29T05:29:53.525Z,83.89
2017-09-29T05:32:19.809Z,82.76
2017-09-29T05:34:46.030Z,84.52
2017-09-29T05:37:12.253Z,82.01
2017-09-29T05:39:38.528Z,81.85
2017-09-29T05:42:04.748Z,80.83
2017-09-29T05:44:30.999Z,80.82
2017-09-29T05:46:57.274Z,80.16
2017-09-29T05:49:23.502Z,81.10
2017-09-29T05:51:49.757Z,80.68
2017-09-29T05:54:16.059Z,79.03
2017-09-29T05:56:42.302Z,79.62
2017-09-29T05:59:08.544Z,80.55
2017-09-29T06:01:34.840Z,80.11
2017-09-29T06:04:01.090Z,77.86
2017-09-29T06:06:27.372Z,78.50
2017-09-29T06:08:53.655Z,78.26
2017-09-29T06:11:19.938Z,78.30
2017-09-29T06:13:46.167Z,77.30
2017-09-29T06:16:12.430Z,77.75
2017-09-29T06:18:38.671Z,76.94
2017-09-29T06:21:04.901Z,76.97
2017-09-29T06:23:31.185Z,76.53
2017-09-29T06:25:57.428Z,77.06
2017-09-29T06:28:23.688Z,77.69
2017-09-29T06:30:50.001Z,77.93
2017-09-29T06:33:16.268Z,76.26
2017-09-29T06:35:42.549Z,76.16
2017-09-29T06:38:08.836Z,75.95
2017-09-29T06:40:35.074Z,75.94
2017-09-29T06:43:01.316Z,75.05
2017-09-29T06:45:27.579Z,75.70
2017-09-29T06:47:53.825Z,73.42
2017-09-29T06:50:20.057Z,70.74
2017-09-29T06:52:46.337Z,72.11
2017-09-29T06:55:12.573Z,70.58
2017-09-29T06:57:38.820Z,71.23
2017-09-29T07:00:05.118Z,69.56
2017-09-29T07:02:31.355Z,68.60
2017-09-29T07:04:57.595Z,65.87
2017-09-29T07:07:23.887Z,65.75
2017-09-29T07:09:50.158Z,63.84
2017-09-29T07:12:16.397Z,63.07
2017-09-29T07:14:42.657Z,62.66
2017-09-29T07:17:08.886Z,62.42
2017-09-29T07:19:35.101Z,62.23
2017-09-29T07:22:01.368Z,58.93
2017-09-29T07:24:27.589Z,57.01
2017-09-29T07:26:53.815Z,59.93
2017-09-29T07:29:20.089Z,56.06
2017-09-29T07:31:46.332Z,54.94
2017-09-29T07:34:12.568Z,56.40
2017-09-29T07:36:38.844Z,58.55
2017-09-29T07:39:05.066Z,58.45
2017-09-29T07:41:31.303Z,57.50
2017-09-29T07:43:57.565Z,56.04
2017-09-29T07:46:23.798Z,54.42
2017-09-29T07:48:50.031Z,53.18
2017-09-29T07:51:16.310Z,52.38
2017-09-29T07:53:42.538Z,51.21
2017-09-29T07:56:08.769Z,50.55
2017-09-29T07:58:35.065Z,47.30
2017-09-29T08:01:01.458Z,45.16
2017-09-29T08:03:27.695Z,45.67
2017-09-29T08:05:53.959Z,46.61
2017-09-29T08:08:20.196Z,47.37
2017-09-29T08:10:46.421Z,47.14
2017-09-29T08:13:12.718Z,48.24
2017-09-29T08:15:38.946Z,49.46
2017-09-29T08:18:05.208Z,47.10
2017-09-29T08:20:31.481Z,43.78
2017-09-29T08:22:57.723Z,41.63
2017-09-29T08:25:23.972Z,41.52
2017-09-29T08:27:50.248Z,43.62
2017-09-29T08:30:16.466Z,41.13
2017-09-29T08:32:42.686Z,41.97
2017-09-29T08:35:08.937Z,40.63
2017-09-29T08:37:35.154Z,37.93
2017-09-29T08:40:01.388Z,36.79
2017-09-29T08:42:27.673Z,34.48
2017-09-29T08:44:53.893Z,32.43
2017-09-29T08:47:20.108Z,33.53
2017-09-29T08:49:46.393Z,33.09
2017-09-29T08:52:12.649Z,32.67
2017-09-29T08:54:38.896Z,35.16
2017-09-29T08:57:05.339Z,34.34
2017-09-29T08:59:31.594Z,32.31
2017-09-29T09:01:57.826Z,33.85
2017-09-29T09:04:24.100Z,34.83
2017-09-29T09:06:50.347Z,35.87
2017-09-29T09:09:16.590Z,34.08
2017-09-29T09:11:42.855Z,35.66
2017-09-29T09:14:09.103Z,36.21
2017-09-29T09:16:35.348Z,32.53
2017-09-29T09:19:01.609Z,35.55
2017-09-29T09:21:27.819Z,35.81
2017-09-29T09:23:54.072Z,35.54
2017-09-29T09:26:20.335Z,37.93
2017-09-29T09:28:46.577Z,36.18
2017-09-29T09:31:12.793Z,38.22
2017-09-29T09:33:39.068Z,37.55
2017-09-29T09:36:05.290Z,41.41
2017-09-29T09:38:31.501Z,40.61
2017-09-29T09:40:57.774Z,40.35
2017-09-29T09:43:23.999Z,38.43
2017-09-29T09:45:50.224Z,37.72
2017-09-29T09:48:16.483Z,37.95
2017-09-29T09:50:42.769Z,36.05
2017-09-29T09:53:08.985Z,35.18
2017-09-29T09:55:35.248Z,36.49
2017-09-29T09:58:01.498Z,37.71
2017-09-29T10:00:27.735Z,39.56
2017-09-29T10:02:54.015Z,39.81
2017-09-29T10:05:20.221Z,38.79
2017-09-29T10:07:46.471Z,38.95
2017-09-29T10:10:12.734Z,38.43
2017-09-29T10:12:38.957Z,39.17
2017-09-29T10:15:05.187Z,36.75
2017-09-29T10:17:31.459Z,38.86
2017-09-29T10:19:57.676Z,39.21
2017-09-29T10:22:23.898Z,41.15
2017-09-29T10:24:50.170Z,41.83
2017-09-29T10:27:16.381Z,39.26
2017-09-29T10:29:42.626Z,38.54
2017-09-29T10:32:08.906Z,38.82
2017-09-29T10:34:35.312Z,36.49
2017-09-29T10:37:01.572Z,37.89
2017-09-29T10:39:27.848Z,37.89
2017-09-29T10:41:54.065Z,38.57
2017-09-29T10:44:20.286Z,39.10
2017-09-29T10:46:46.564Z,39.90
2017-09-29T10:49:12.801Z,40.74
2017-09-29T10:51:39.036Z,40.93
2017-09-29T10:54:05.321Z,39.96
2017-09-29T10:56:31.525Z,40.57
2017-09-29T10:58:57.777Z,39.77
2017-09-29T11:01:24.053Z,41.74
2017-09-29T11:03:50.289Z,40.04
2017-09-29T11:06:16.528Z,41.70
2017-09-29T11:08:42.791Z,41.70
2017-09-29T11:11:09.017Z,42.30
2017-09-29T11:13:35.239Z,43.04
2017-09-29T11:16:01.488Z,41.70
2017-09-29T11:18:27.722Z,41.67
2017-09-29T11:20:54.068Z,43.12
2017-09-29T11:23:20.368Z,42.52
2017-09-29T11:25:46.611Z,42.75
2017-09-29T11:28:12.908Z,44.19
2017-09-29T11:30:39.235Z,44.26
2017-09-29T11:33:05.460Z,44.99
2017-09-29T11:35:31.686Z,44.04
2017-09-29T11:37:57.933Z,45.67
2017-09-29T11:40:24.276Z,44.75
2017-09-29T11:42:50.506Z,46.89
2017-09-29T11:45:16.776Z,48.33
2017-09-29T11:47:43.197Z,48.36
2017-09-29T11:50:09.435Z,49.56
2017-09-29T11:52:35.712Z,50.53
2017-09-29T11:55:02.007Z,46.90
2017-09-29T11:57:28.231Z,46.30
2017-09-29T11:59:54.512Z,46.40
2017-09-29T12:02:20.748Z,47.62
2017-09-29T12:04:46.998Z,49.97
2017-09-29T12:07:13.288Z,47.55
2017-09-29T12:09:39.523Z,52.74
2017-09-29T12:12:05.746Z,52.86
2017-09-29T12:14:32.035Z,52.88
2017-09-29T12:16:58.256Z,52.73
2017-09-29T12:19:24.477Z,54.31
2017-09-29T12:21:50.746Z,54.83
2017-09-29T12:24:17.024Z,54.29
2017-09-29T12:26:43.272Z,52.03
2017-09-29T12:29:09.594Z,53.40
2017-09-29T12:31:35.822Z,54.80
2017-09-29T12:34:02.050Z,54.15
2017-09-29T12:36:28.337Z,52.55
2017-09-29T12:38:54.555Z,52.52
2017-09-29T12:41:20.772Z,50.53
2017-09-29T12:43:47.055Z,51.06
2017-09-29T12:46:13.288Z,56.34
2017-09-29T12:48:39.515Z,54.44
2017-09-29T12:51:05.768Z,52.58
2017-09-29T12:53:32.050Z,55.03
2017-09-29T12:55:58.283Z,53.68
2017-09-29T12:58:24.568Z,50.54
2017-09-29T13:00:50.794Z,50.66
2017-09-29T13:03:17.029Z,50.78
2017-09-29T13:05:43.294Z,51.57
2017-09-29T13:08:09.519Z,52.97
2017-09-29T13:10:35.743Z,51.08
2017-09-29T13:13:02.024Z,50.49
2017-09-29T13:15:28.247Z,52.46
2017-09-29T13:17:54.473Z,52.56
2017-09-29T13:20:20.742Z,51.45
2017-09-29T13:22:46.968Z,49.16
2017-09-29T13:25:13.190Z,51.46
2017-09-29T13:27:39.446Z,50.48
2017-09-29T13:30:05.726Z,49.42
2017-09-29T13:32:32.100Z,50.35
2017-09-29T13:34:58.371Z,50.74
2017-09-29T13:37:24.607Z,51.13
2017-09-29T13:39:50.840Z,51.11
2017-09-29T13:42:17.133Z,51.30
2017-09-29T13:44:43.351Z,51.44
2017-09-29T13:47:09.584Z,51.54
2017-09-29T13:49:35.872Z,51.19
2017-09-29T13:52:02.181Z,51.61
2017-09-29T13:54:28.421Z,51.41
2017-09-29T13:56:54.686Z,51.58
2017-09-29T13:59:20.925Z,50.41
2017-09-29T14:01:47.137Z,50.21
2017-09-29T14:04:13.392Z,50.18
2017-09-29T14:06:39.627Z,51.69
2017-09-29T14:09:05.855Z,51.44
2017-09-29T14:11:32.130Z,48.85
2017-09-29T14:13:58.348Z,49.50
2017-09-29T14:16:24.558Z,50.01
2017-09-29T14:18:50.811Z,49.86
2017-09-29T14:21:17.036Z,50.59
2017-09-29T14:23:43.331Z,50.79
2017-09-29T14:26:09.609Z,50.53
2017-09-29T14:28:35.839Z,50.79
2017-09-29T14:31:02.057Z,49.48
2017-09-29T14:33:28.317Z,49.39
2017-09-29T14:35:54.548Z,49.36
2017-09-29T14:38:20.768Z,49.53
2017-09-29T14:40:47.055Z,49.54
2017-09-29T14:43:13.283Z,50.03
2017-09-29T14:45:39.518Z,50.57
2017-09-29T14:48:05.769Z,50.96
2017-09-29T14:50:31.981Z,49.83
2017-09-29T14:52:58.189Z,48.97
2017-09-29T14:55:24.462Z,48.92
2017-09-29T14:57:50.692Z,48.97
2017-09-29T15:00:16.905Z,50.13
2017-09-29T15:02:43.167Z,50.58
2017-09-29T15:05:09.386Z,51.23
2017-09-29T15:07:35.769Z,49.31
2017-09-29T15:10:02.028Z,49.51
2017-09-29T15:12:28.255Z,51.03
2017-09-29T15:14:54.488Z,50.68
2017-09-29T15:17:20.785Z,50.62
2017-09-29T15:19:47.037Z,51.30
2017-09-29T15:22:13.246Z,51.54
2017-09-29T15:24:39.516Z,52.66
2017-09-29T15:27:05.743Z,51.62
2017-09-29T15:29:31.966Z,51.52
2017-09-29T15:31:58.247Z,56.36
2017-09-29T15:34:24.494Z,54.43
2017-09-29T15:36:50.749Z,59.04
2017-09-29T15:39:17.012Z,56.19
2017-09-29T15:41:43.244Z,59.31
2017-09-29T15:44:09.470Z,58.33
2017-09-29T15:46:35.735Z,65.03
2017-09-29T15:49:01.983Z,63.64
2017-09-29T15:51:28.220Z,62.58
2017-09-29T15:53:54.505Z,59.70
2017-09-29T15:56:20.728Z,62.38
2017-09-29T15:58:46.990Z,63.10
2017-09-29T16:01:13.251Z,65.95
2017-09-29T16:03:39.495Z,63.60
2017-09-29T16:06:05.732Z,66.11
2017-09-29T16:08:31.982Z,66.89
2017-09-29T16:10:58.339Z,68.69
2017-09-29T16:13:24.577Z,68.03
2017-09-29T16:15:50.857Z,66.49
2017-09-29T16:18:17.113Z,67.08
2017-09-29T16:20:43.339Z,66.60
2017-09-29T16:23:09.602Z,66.39
2017-09-29T16:25:35.820Z,67.80
2017-09-29T16:28:02.040Z,68.76
2017-09-29T16:30:28.310Z,69.01
2017-09-29T16:32:54.573Z,69.72
2017-09-29T16:35:20.810Z,68.69
2017-09-29T16:37:47.069Z,68.38
2017-09-29T16:40:13.314Z,69.86
2017-09-29T16:42:39.509Z,70.41
2017-09-29T16:45:05.774Z,71.60
2017-09-29T16:47:32.003Z,71.99
2017-09-29T16:49:58.230Z,71.58
2017-09-29T16:52:24.495Z,69.80
2017-09-29T16:54:50.722Z,73.77
2017-09-29T16:57:16.938Z,74.83
2017-09-29T16:59:43.188Z,73.92
2017-09-29T17:02:09.424Z,72.46
2017-09-29T17:04:35.656Z,75.48
2017-09-29T17:07:01.919Z,74.62
2017-09-29T17:09:28.167Z,75.01
2017-09-29T17:11:54.380Z,72.13
2017-09-29T17:14:20.647Z,68.51
2017-09-29T17:16:46.919Z,67.72
2017-09-29T17:19:13.165Z,66.99
2017-09-29T17:21:39.439Z,67.20
2017-09-29T17:24:05.663Z,68.95
2017-09-29T17:26:31.896Z,72.67
2017-09-29T17:28:58.413Z,71.69
2017-09-29T17:31:24.646Z,69.26
2017-09-29T17:33:50.861Z,68.08
2017-09-29T17:36:17.147Z,68.77
2017-09-29T17:38:43.399Z,69.28
2017-09-29T17:41:09.622Z,69.43
2017-09-29T17:43:35.890Z,70.57
2017-09-29T17:46:02.114Z,70.40
2017-09-29T17:48:28.323Z,71.03
2017-09-29T17:50:54.580Z,72.83
2017-09-29T17:53:20.806Z,72.09
2017-09-29T17:55:47.032Z,72.47
2017-09-29T17:58:13.326Z,73.11
2017-09-29T18:00:39.547Z,73.13
2017-09-29T18:03:05.767Z,73.23
2017-09-29T18:05:32.040Z,73.48
2017-09-29T18:07:58.311Z,72.83
2017-09-29T18:10:24.540Z,73.43
2017-09-29T18:12:50.805Z,72.57
2017-09-29T18:15:17.030Z,72.64
2017-09-29T18:17:43.268Z,75.94
2017-09-29T18:20:09.526Z,76.01
2017-09-29T18:22:35.761Z,74.81
2017-09-29T18:25:01.997Z,76.38
2017-09-29T18:27:28.288Z,75.52
2017-09-29T18:29:54.504Z,75.62
2017-09-29T18:32:20.737Z,75.85
2017-09-29T18:34:47.027Z,76.50
2017-09-29T18:37:13.255Z,76.41
2017-09-29T18:39:39.490Z,76.75
2017-09-29T18:42:05.748Z,77.29
2017-09-29T18:44:31.978Z,76.61
2017-09-29T18:46:58.206Z,76.18
2017-09-29T18:49:24.486Z,77.07
2017-09-29T18:51:50.726Z,78.35
2017-09-29T18:54:16.963Z,77.77
2017-09-29T18:56:43.217Z,78.30
2017-09-29T18:59:09.456Z,77.90
2017-09-29T19:01:35.734Z,78.63
2017-09-29T19:04:02.143Z,78.93
2017-09-29T19:06:28.359Z,77.75
2017-09-29T19:08:54.584Z,80.18
2017-09-29T19:11:20.869Z,78.05
2017-09-29T19:13:47.084Z,79.08
2017-09-29T19:16:13.756Z,78.60
2017-09-29T19:18:40.031Z,78.41
2017-09-29T19:21:06.259Z,78.93
2017-09-29T19:23:32.492Z,80.61
2017-09-29T19:25:58.774Z,80.87
2017-09-29T19:28:25.009Z,80.73
2017-09-29T19:30:51.284Z,80.67
2017-09-29T19:33:17.564Z,81.21
2017-09-29T19:35:43.797Z,81.29
2017-09-29T19:38:10.045Z,81.79
2017-09-29T19:40:36.330Z,81.79
2017-09-29T19:43:02.565Z,81.90
2017-09-29T19:45:28.801Z,80.34
2017-09-29T19:47:55.067Z,80.58
2017-09-29T19:50:21.285Z,79.22
2017-09-29T19:52:47.517Z,78.49
2017-09-29T19:55:13.779Z,78.98
2017-09-29T19:57:39.996Z,77.91
2017-09-29T20:00:06.224Z,80.22
2017-09-29T20:02:32.524Z,81.27
2017-09-29T20:04:58.762Z,81.10
2017-09-29T20:07:25.012Z,80.66
2017-09-29T20:09:51.309Z,80.94
2017-09-29T20:12:17.572Z,80.87
2017-09-29T20:14:43.795Z,79.50
2017-09-29T20:17:10.048Z,79.98
2017-09-29T20:19:36.272Z,79.57
2017-09-29T20:22:02.521Z,81.81
2017-09-29T20:24:28.802Z,81.01
2017-09-29T20:26:55.045Z,81.66
2017-09-29T20:29:21.268Z,82.52
2017-09-29T20:31:47.581Z,82.67
2017-09-29T20:34:13.808Z,81.85
2017-09-29T20:36:40.026Z,82.67
2017-09-29T20:39:06.328Z,84.57
2017-09-29T20:41:32.561Z,83.49
2017-09-29T20:43:58.796Z,83.95
2017-09-29T20:46:25.049Z,84.13
2017-09-29T20:48:51.284Z,83.04
2017-09-29T20:51:17.505Z,82.83
2017-09-29T20:53:43.768Z,82.54
2017-09-29T20:56:10.033Z,82.79
2017-09-29T20:58:36.260Z,83.52
2017-09-29T21:01:02.525Z,83.90
2017-09-29T21:03:28.741Z,84.12
2017-09-29T21:05:54.964Z,84.46
2017-09-29T21:08:21.224Z,84.36
2017-09-29T21:10:47.464Z,84.01
2017-09-29T21:13:13.697Z,83.87
2017-09-29T21:15:39.964Z,83.94
2017-09-29T21:18:06.230Z,83.97
2017-09-29T21:20:32.440Z,82.19
2017-09-29T21:22:58.699Z,79.98
2017-09-29T21:25:24.919Z,80.13
2017-09-29T21:27:51.146Z,79.77
2017-09-29T21:30:17.455Z,80.20
2017-09-29T21:32:43.715Z,80.89
2017-09-29T21:35:09.953Z,81.07
2017-09-29T21:37:36.221Z,80.35
2017-09-29T21:40:02.458Z,81.09
2017-09-29T21:42:28.693Z,81.60
2017-09-29T21:44:54.990Z,82.14
2017-09-29T21:47:21.219Z,82.58
2017-09-29T21:49:47.446Z,79.82
2017-09-29T21:52:13.719Z,80.39
2017-09-29T21:54:39.964Z,77.75
2017-09-29T21:57:06.196Z,80.40
2017-09-29T21:59:32.448Z,80.64
2017-09-29T22:01:58.685Z,80.89
2017-09-29T22:04:24.925Z,81.12
2017-09-29T22:06:51.204Z,81.15
2017-09-29T22:09:17.441Z,80.24
2017-09-29T22:11:43.659Z,79.27
2017-09-29T22:14:09.921Z,78.87
2017-09-29T22:16:36.154Z,78.55
2017-09-29T22:19:02.377Z,77.73
2017-09-29T22:21:28.651Z,79.21
2017-09-29T22:23:54.892Z,80.05
2017-09-29T22:26:21.109Z,78.95
2017-09-29T22:28:47.367Z,80.86
2017-09-29T22:31:13.602Z,81.33
2017-09-29T22:33:39.814Z,82.66
2017-09-29T22:36:06.083Z,82.60
2017-09-29T22:38:32.316Z,83.49
2017-09-29T22:40:58.541Z,83.93
2017-09-29T22:43:24.828Z,83.44
2017-09-29T22:45:51.050Z,82.76
2017-09-29T22:48:17.272Z,83.66
2017-09-29T22:50:43.524Z,83.18
2017-09-29T22:53:09.738Z,82.12
2017-09-29T22:55:35.976Z,82.64
2017-09-29T22:58:02.260Z,82.83
2017-09-29T23:00:28.496Z,81.71
2017-09-29T23:02:54.746Z,80.59
2017-09-29T23:05:21.013Z,80.74
2017-09-29T23:07:47.262Z,80.56
2017-09-29T23:10:13.499Z,81.01
2017-09-29T23:12:39.794Z,82.43
2017-09-29T23:15:06.028Z,82.03
2017-09-29T23:17:32.257Z,81.53
2017-09-29T23:19:58.524Z,82.09
2017-09-29T23:22:24.778Z,82.56
2017-09-29T23:24:51.008Z,82.30
2017-09-29T23:27:17.295Z,83.12
2017-09-29T23:29:43.518Z,82.97
2017-09-29T23:32:09.746Z,82.63
2017-09-29T23:34:36.008Z,83.48
2017-09-29T23:37:02.226Z,84.20
2017-09-29T23:39:28.455Z,83.86
2017-09-29T23:41:54.733Z,84.15
2017-09-29T23:44:20.957Z,83.75
2017-09-29T23:46:47.177Z,83.77
2017-09-29T23:49:13.438Z,82.64
2017-09-29T23:51:39.661Z,82.56
2017-09-29T23:54:05.903Z,80.97
2017-09-29T23:56:32.143Z,81.71
2017-09-29T23:58:58.366Z,81.49
